createdAt,value
2022-08-22T00:01:37.917Z,88847.00
2022-08-22T00:03:10.647Z,88839.72
2022-08-22T00:03:10.808Z,88846.88
2022-08-22T00:04:26.422Z,88844.84
2022-08-22T00:07:19.477Z,88853.00
2022-08-22T00:10:12.699Z,88851.72
2022-08-22T00:13:07.885Z,88859.03
2022-08-22T00:15:44.852Z,88856.44
2022-08-22T00:18:20.475Z,88857.72
2022-08-22T00:21:20.894Z,88855.72
2022-08-22T00:23:51.523Z,88856.03
2022-08-22T00:26:31.325Z,88862.59
2022-08-22T00:29:05.346Z,88862.91
2022-08-22T00:31:40.639Z,88862.00
2022-08-22T00:34:14.659Z,88866.03
2022-08-22T00:36:48.193Z,88866.75
2022-08-22T00:39:47.488Z,88862.59
2022-08-22T00:42:29.412Z,88863.16
2022-08-22T00:45:17.274Z,88861.31
2022-08-22T00:47:46.938Z,88857.00
2022-08-22T00:50:28.810Z,88863.03
2022-08-22T00:53:17.210Z,88871.03
2022-08-22T00:55:59.174Z,88862.72
2022-08-22T00:58:51.307Z,88862.56
2022-08-22T01:01:27.261Z,88857.00
2022-08-22T01:04:07.602Z,88861.88
2022-08-22T01:06:37.075Z,88864.59
2022-08-22T01:09:22.629Z,88866.59
2022-08-22T01:12:15.497Z,88857.56
2022-08-22T01:15:07.441Z,88858.88
2022-08-22T01:17:52.885Z,88865.44
2022-08-22T01:20:58.272Z,88862.28
2022-08-22T01:23:37.177Z,88857.25
2022-08-22T01:26:26.815Z,88864.00
2022-08-22T01:29:19.512Z,88857.25
2022-08-22T01:32:32.186Z,88857.84
2022-08-22T01:35:24.765Z,88856.97
2022-08-22T01:38:09.517Z,88862.41
2022-08-22T01:41:06.689Z,88867.88
2022-08-22T01:43:59.670Z,88868.97
2022-08-22T01:46:55.051Z,88871.41
2022-08-22T01:49:27.901Z,88874.13
2022-08-22T01:52:09.891Z,88870.25
2022-08-22T01:54:59.067Z,88876.09
2022-08-22T01:57:26.839Z,88873.53
2022-08-22T01:59:59.798Z,88865.78
2022-08-22T02:02:59.242Z,88880.50
2022-08-22T02:05:40.067Z,88875.63
2022-08-22T02:08:30.190Z,88880.94
2022-08-22T02:11:12.098Z,88878.06
2022-08-22T02:13:54.651Z,88877.75
2022-08-22T02:16:33.117Z,88881.47
2022-08-22T02:19:05.058Z,88869.31
2022-08-22T02:21:45.132Z,88877.16
2022-08-22T02:24:33.115Z,88881.72
2022-08-22T02:27:13.363Z,88874.00
2022-08-22T02:29:50.481Z,88887.25
2022-08-22T02:32:25.386Z,88884.97
2022-08-22T02:35:09.040Z,88881.69
2022-08-22T02:37:54.583Z,88888.25
2022-08-22T02:40:39.374Z,88894.81
2022-08-22T02:43:21.224Z,88886.97
2022-08-22T02:45:57.782Z,88886.50
2022-08-22T02:48:55.954Z,88885.66
2022-08-22T02:51:36.311Z,88888.94
2022-08-22T02:54:14.491Z,88897.47
2022-08-22T02:56:48.538Z,88883.03
2022-08-22T02:59:27.563Z,88894.19
2022-08-22T03:01:55.706Z,88889.91
2022-08-22T03:04:45.335Z,88897.03
2022-08-22T03:07:26.913Z,88882.13
2022-08-22T03:10:03.831Z,88892.56
2022-08-22T03:12:41.931Z,88897.28
2022-08-22T03:15:31.611Z,88902.56
2022-08-22T03:18:19.763Z,88894.53
2022-08-22T03:20:56.915Z,88899.13
2022-08-22T03:23:38.936Z,88903.28
2022-08-22T03:26:25.092Z,88901.59
2022-08-22T03:28:59.866Z,88902.19
2022-08-22T03:31:29.429Z,88901.38
2022-08-22T03:34:22.262Z,88910.16
2022-08-22T03:37:25.115Z,88914.91
2022-08-22T03:39:55.676Z,88916.94
2022-08-22T03:42:50.135Z,88912.84
2022-08-22T03:45:44.894Z,88921.19
2022-08-22T03:48:40.776Z,88910.34
2022-08-22T03:51:40.510Z,88921.56
2022-08-22T03:54:22.563Z,88924.44
2022-08-22T03:57:09.824Z,88924.78
2022-08-22T03:59:42.770Z,88926.94
2022-08-22T04:02:42.904Z,88923.81
2022-08-22T04:05:53.363Z,88922.38
2022-08-22T04:08:26.519Z,88928.97
2022-08-22T04:11:05.458Z,88931.28
2022-08-22T04:14:09.716Z,88933.84
2022-08-22T04:16:57.764Z,88938.97
2022-08-22T04:19:55.038Z,88935.94
2022-08-22T04:22:56.808Z,88941.78
2022-08-22T04:25:45.457Z,88936.56
2022-08-22T04:28:31.735Z,88935.53
2022-08-22T04:31:17.949Z,88945.66
2022-08-22T04:33:51.946Z,88943.88
2022-08-22T04:36:45.104Z,88934.91
2022-08-22T04:39:40.941Z,88944.28
2022-08-22T04:42:32.182Z,88944.50
2022-08-22T04:45:12.829Z,88944.69
2022-08-22T04:47:54.013Z,88949.38
2022-08-22T04:50:46.046Z,88947.41
2022-08-22T04:53:34.449Z,88953.91
2022-08-22T04:56:25.361Z,88954.06
2022-08-22T04:58:59.939Z,88962.44
2022-08-22T05:01:53.558Z,88962.03
2022-08-22T05:04:28.513Z,88963.59
2022-08-22T05:07:20.757Z,88968.41
2022-08-22T05:09:53.047Z,88965.09
2022-08-22T05:12:29.146Z,88958.19
2022-08-22T05:15:02.983Z,88966.28
2022-08-22T05:17:32.043Z,88973.22
2022-08-22T05:20:06.452Z,88975.34
2022-08-22T05:22:40.189Z,88967.97
2022-08-22T05:25:11.974Z,88974.03
2022-08-22T05:27:48.668Z,88971.06
2022-08-22T05:30:27.407Z,88976.41
2022-08-22T05:33:14.771Z,88974.00
2022-08-22T05:35:49.676Z,88977.88
2022-08-22T05:38:23.457Z,88966.94
2022-08-22T05:40:56.799Z,88974.31
2022-08-22T05:43:25.813Z,88972.31
2022-08-22T05:45:57.719Z,88976.13
2022-08-22T05:48:56.458Z,88970.38
2022-08-22T05:51:39.835Z,88969.38
2022-08-22T05:54:14.589Z,88967.41
2022-08-22T05:57:09.991Z,88968.09
2022-08-22T05:59:41.858Z,88971.56
2022-08-22T06:02:14.533Z,88974.97
2022-08-22T06:04:55.446Z,88977.19
2022-08-22T06:07:49.072Z,88975.72
2022-08-22T06:10:27.986Z,88970.03
2022-08-22T06:13:23.559Z,88979.53
2022-08-22T06:16:00.133Z,88978.72
2022-08-22T06:18:28.056Z,88979.22
2022-08-22T06:21:10.270Z,88976.97
2022-08-22T06:23:46.303Z,88972.72
2022-08-22T06:26:21.161Z,88972.63
2022-08-22T06:28:54.509Z,88976.66
2022-08-22T06:31:32.998Z,88987.34
2022-08-22T06:34:12.071Z,88986.22
2022-08-22T06:36:41.647Z,88987.94
2022-08-22T06:39:21.288Z,88982.53
2022-08-22T06:42:02.566Z,88988.50
2022-08-22T06:44:53.773Z,88988.34
2022-08-22T06:47:28.832Z,88986.69
2022-08-22T06:50:20.822Z,88986.28
2022-08-22T06:53:01.528Z,88985.75
2022-08-22T06:55:30.426Z,88994.41
2022-08-22T06:58:02.436Z,88983.06
2022-08-22T07:00:33.404Z,88985.63
2022-08-22T07:03:42.621Z,88986.13
2022-08-22T07:06:16.156Z,88988.78
2022-08-22T07:08:43.690Z,88991.19
2022-08-22T07:11:22.645Z,88982.22
2022-08-22T07:14:06.608Z,88988.03
2022-08-22T07:16:44.927Z,88985.34
2022-08-22T07:19:38.242Z,88984.72
2022-08-22T07:22:14.723Z,88995.91
2022-08-22T07:24:50.682Z,88981.84
2022-08-22T07:27:42.047Z,88983.81
2022-08-22T07:30:13.186Z,88995.91
2022-08-22T07:32:58.835Z,88981.63
2022-08-22T07:35:53.299Z,88984.59
2022-08-22T07:38:37.243Z,88982.19
2022-08-22T07:41:17.227Z,88985.38
2022-08-22T07:43:59.632Z,88980.88
2022-08-22T07:46:41.722Z,88978.38
2022-08-22T07:49:53.206Z,88987.44
2022-08-22T07:52:21.773Z,88983.00
2022-08-22T07:54:57.030Z,88981.59
2022-08-22T07:57:32.829Z,88983.00
2022-08-22T08:00:02.099Z,88975.38
2022-08-22T08:02:29.365Z,88976.22
2022-08-22T08:05:00.291Z,88978.38
2022-08-22T08:07:29.165Z,88976.03
2022-08-22T08:10:03.011Z,88976.34
2022-08-22T08:12:39.436Z,88979.22
2022-08-22T08:15:15.783Z,88977.16
2022-08-22T08:17:44.691Z,88973.16
2022-08-22T08:20:15.238Z,88977.50
2022-08-22T08:22:45.969Z,88969.28
2022-08-22T08:25:19.897Z,88970.78
2022-08-22T08:27:50.287Z,88971.09
2022-08-22T08:30:23.351Z,88963.06
2022-08-22T08:32:57.603Z,88965.25
2022-08-22T08:36:02.735Z,88960.84
2022-08-22T08:38:38.231Z,88971.91
2022-08-22T08:41:22.774Z,88964.41
2022-08-22T08:43:49.753Z,88960.91
2022-08-22T08:46:55.540Z,88968.56
2022-08-22T08:49:42.165Z,88953.56
2022-08-22T08:52:42.197Z,88954.34
2022-08-22T08:55:30.921Z,88953.78
2022-08-22T08:58:40.785Z,88953.56
2022-08-22T09:01:31.961Z,88953.41
2022-08-22T09:04:19.427Z,88947.00
2022-08-22T09:06:52.804Z,88946.91
2022-08-22T09:09:58.079Z,88947.44
2022-08-22T09:12:24.915Z,88955.88
2022-08-22T09:15:15.758Z,88944.81
2022-08-22T09:18:00.779Z,88943.09
2022-08-22T09:21:13.732Z,88935.31
2022-08-22T09:24:04.632Z,88938.78
2022-08-22T09:26:52.604Z,88936.84
2022-08-22T09:29:51.368Z,88930.91
2022-08-22T09:32:37.090Z,88931.84
2022-08-22T09:35:16.203Z,88928.69
2022-08-22T09:38:23.391Z,88921.44
2022-08-22T09:41:24.872Z,88925.53
2022-08-22T09:44:03.905Z,88930.59
2022-08-22T09:46:55.223Z,88935.06
2022-08-22T09:50:18.153Z,88934.06
2022-08-22T09:53:11.203Z,88922.06
2022-08-22T09:55:40.715Z,88926.41
2022-08-22T09:58:41.598Z,88932.78
2022-08-22T10:01:32.871Z,88939.00
2022-08-22T10:04:28.984Z,88935.91
2022-08-22T10:06:58.651Z,88940.22
2022-08-22T10:09:34.472Z,88935.63
2022-08-22T10:12:12.320Z,88936.50
2022-08-22T10:15:09.895Z,88935.03
2022-08-22T10:17:51.982Z,88928.81
2022-08-22T10:20:55.345Z,88931.66
2022-08-22T10:23:35.915Z,88935.31
2022-08-22T10:26:02.908Z,88932.50
2022-08-22T10:28:41.497Z,88931.84
2022-08-22T10:31:25.717Z,88917.88
2022-08-22T10:34:22.720Z,88924.34
2022-08-22T10:37:30.860Z,88920.81
2022-08-22T10:39:59.113Z,88920.16
2022-08-22T10:42:36.522Z,88921.56
2022-08-22T10:45:37.275Z,88925.47
2022-08-22T10:48:08.943Z,88916.16
2022-08-22T10:50:39.914Z,88910.50
2022-08-22T10:53:29.454Z,88902.81
2022-08-22T10:56:25.169Z,88908.50
2022-08-22T10:59:23.237Z,88906.03
2022-08-22T11:02:07.256Z,88907.38
2022-08-22T11:05:03.386Z,88899.94
2022-08-22T11:08:07.441Z,88896.78
2022-08-22T11:11:14.942Z,88899.34
2022-08-22T11:14:21.834Z,88895.81
2022-08-22T11:17:27.525Z,88892.84
2022-08-22T11:20:14.417Z,88902.91
2022-08-22T11:23:16.878Z,88898.66
2022-08-22T11:25:53.921Z,88895.69
2022-08-22T11:28:45.342Z,88888.69
2022-08-22T11:31:51.983Z,88906.69
2022-08-22T11:34:50.199Z,88906.84
2022-08-22T11:37:42.879Z,88889.81
2022-08-22T11:40:43.137Z,88909.91
2022-08-22T11:43:34.408Z,88895.03
2022-08-22T11:46:36.387Z,88897.56
2022-08-22T11:49:44.949Z,88892.41
2022-08-22T11:52:12.590Z,88888.72
2022-08-22T11:54:53.210Z,88896.38
2022-08-22T11:57:44.718Z,88897.25
2022-08-22T12:00:34.954Z,88897.16
2022-08-22T12:03:46.194Z,88901.25
2022-08-22T12:06:46.917Z,88906.41
2022-08-22T12:09:30.151Z,88895.88
2022-08-22T12:12:17.103Z,88899.84
2022-08-22T12:15:19.597Z,88900.13
2022-08-22T12:18:20.199Z,88896.31
2022-08-22T12:21:07.590Z,88898.06
2022-08-22T12:24:32.420Z,88897.84
2022-08-22T12:27:28.704Z,88896.34
2022-08-22T12:30:13.687Z,88894.38
2022-08-22T12:33:21.928Z,88890.78
2022-08-22T12:35:58.513Z,88888.44
2022-08-22T12:38:40.801Z,88893.53
2022-08-22T12:41:35.581Z,88893.63
2022-08-22T12:44:17.163Z,88891.66
2022-08-22T12:47:09.218Z,88883.78
2022-08-22T12:50:26.901Z,88890.81
2022-08-22T12:53:19.645Z,88881.59
2022-08-22T12:55:53.297Z,88887.94
2022-08-22T12:58:51.460Z,88882.41
2022-08-22T13:01:19.926Z,88886.41
2022-08-22T13:04:03.864Z,88887.53
2022-08-22T13:06:33.844Z,88881.03
2022-08-22T13:09:02.715Z,88882.56
2022-08-22T13:11:41.776Z,88891.19
2022-08-22T13:14:19.601Z,88896.31
2022-08-22T13:16:55.124Z,88882.84
2022-08-22T13:19:27.306Z,88875.25
2022-08-22T13:22:10.434Z,88885.38
2022-08-22T13:24:51.705Z,88878.16
2022-08-22T13:27:50.594Z,88882.53
2022-08-22T13:30:26.863Z,88885.22
2022-08-22T13:33:12.974Z,88880.94
2022-08-22T13:35:44.472Z,88886.44
2022-08-22T13:38:17.907Z,88872.75
2022-08-22T13:40:54.385Z,88879.50
2022-08-22T13:43:26.077Z,88874.88
2022-08-22T13:46:07.119Z,88875.97
2022-08-22T13:48:50.615Z,88873.03
2022-08-22T13:51:39.986Z,88880.31
2022-08-22T13:54:15.811Z,88870.31
2022-08-22T13:56:56.415Z,88878.41
2022-08-22T13:59:50.827Z,88874.44
2022-08-22T14:02:31.038Z,88876.78
2022-08-22T14:05:07.608Z,88872.16
2022-08-22T14:07:59.386Z,88869.63
2022-08-22T14:10:33.505Z,88874.84
2022-08-22T14:13:00.516Z,88882.00
2022-08-22T14:15:44.947Z,88874.91
2022-08-22T14:18:30.327Z,88872.84
2022-08-22T14:21:26.226Z,88872.84
2022-08-22T14:23:57.992Z,88868.81
2022-08-22T14:27:05.492Z,88867.78
2022-08-22T14:29:50.811Z,88868.50
2022-08-22T14:32:26.677Z,88874.34
2022-08-22T14:35:02.936Z,88870.19
2022-08-22T14:37:35.864Z,88874.22
2022-08-22T14:40:12.995Z,88873.56
2022-08-22T14:43:05.404Z,88874.34
2022-08-22T14:45:39.452Z,88873.75
2022-08-22T14:48:29.584Z,88871.09
2022-08-22T14:51:10.462Z,88866.81
2022-08-22T14:53:39.705Z,88875.00
2022-08-22T14:56:12.028Z,88869.13
2022-08-22T14:59:04.603Z,88868.22
2022-08-22T15:01:51.162Z,88864.69
2022-08-22T15:04:29.762Z,88864.41
2022-08-22T15:06:58.781Z,88871.25
2022-08-22T15:09:50.710Z,88871.69
2022-08-22T15:12:40.401Z,88875.00
2022-08-22T15:15:15.706Z,88870.75
2022-08-22T15:17:46.028Z,88876.59
2022-08-22T15:20:27.649Z,88877.22
2022-08-22T15:22:59.135Z,88870.56
2022-08-22T15:25:31.988Z,88862.22
2022-08-22T15:28:20.811Z,88887.09
2022-08-22T15:30:54.203Z,88885.66
2022-08-22T15:33:45.576Z,88891.00
2022-08-22T15:36:21.374Z,88883.72
2022-08-22T15:38:54.815Z,88883.22
2022-08-22T15:41:36.212Z,88885.72
2022-08-22T15:44:14.890Z,88883.22
2022-08-22T15:47:03.175Z,88893.25
2022-08-22T15:49:35.500Z,88890.22
2022-08-22T15:52:02.296Z,88891.53
2022-08-22T15:54:59.304Z,88896.16
2022-08-22T15:57:37.402Z,88896.59
2022-08-22T16:00:23.116Z,88898.53
2022-08-22T16:03:28.619Z,88895.00
2022-08-22T16:06:00.416Z,88898.16
2022-08-22T16:08:45.389Z,88897.03
2022-08-22T16:11:33.780Z,88903.88
2022-08-22T16:14:23.578Z,88901.63
2022-08-22T16:16:50.794Z,88900.66
2022-08-22T16:19:22.222Z,88901.69
2022-08-22T16:21:51.837Z,88894.84
2022-08-22T16:24:18.635Z,88902.31
2022-08-22T16:26:46.510Z,88905.06
2022-08-22T16:29:17.950Z,88915.66
2022-08-22T16:31:44.980Z,88915.78
2022-08-22T16:34:17.720Z,88915.06
2022-08-22T16:37:13.496Z,88909.09
2022-08-22T16:39:45.555Z,88913.66
2022-08-22T16:42:15.156Z,88909.78
2022-08-22T16:45:10.449Z,88909.78
2022-08-22T16:47:42.443Z,88915.72
2022-08-22T16:50:18.404Z,88918.94
2022-08-22T16:53:16.280Z,88910.91
2022-08-22T16:55:46.264Z,88919.94
2022-08-22T16:58:20.226Z,88925.81
2022-08-22T17:01:01.959Z,88917.41
2022-08-22T17:03:47.510Z,88922.28
2022-08-22T17:06:48.518Z,88927.44
2022-08-22T17:09:59.868Z,88923.44
2022-08-22T17:12:51.755Z,88927.66
2022-08-22T17:15:51.966Z,88933.47
2022-08-22T17:18:27.223Z,88929.56
2022-08-22T17:21:06.223Z,88934.81
2022-08-22T17:23:51.127Z,88935.22
2022-08-22T17:26:31.518Z,88937.72
2022-08-22T17:29:17.148Z,88942.28
2022-08-22T17:32:10.158Z,88945.91
2022-08-22T17:35:16.924Z,88945.66
2022-08-22T17:37:55.886Z,88952.34
2022-08-22T17:40:38.082Z,88958.59
2022-08-22T17:43:13.879Z,88968.63
2022-08-22T17:46:21.688Z,88976.00
2022-08-22T17:49:48.597Z,88973.75
2022-08-22T17:52:20.744Z,88976.28
2022-08-22T17:55:01.294Z,88970.34
2022-08-22T17:57:33.974Z,88981.06
2022-08-22T18:00:16.795Z,88982.16
2022-08-22T18:03:07.621Z,88985.25
2022-08-22T18:05:49.748Z,88993.34
2022-08-22T18:11:09.180Z,88992.16
2022-08-22T18:14:14.299Z,88991.66
2022-08-22T18:16:47.895Z,88998.19
2022-08-22T18:19:36.830Z,88998.69
2022-08-22T18:22:13.167Z,89001.91
2022-08-22T18:25:17.593Z,89002.84
2022-08-22T18:27:52.897Z,89009.38
2022-08-22T18:30:31.761Z,89012.00
2022-08-22T18:33:18.950Z,89004.84
2022-08-22T18:35:54.610Z,89013.66
2022-08-22T18:38:25.454Z,89008.19
2022-08-22T18:41:13.208Z,89016.28
2022-08-22T18:43:47.807Z,89011.84
2022-08-22T18:46:32.465Z,89008.16
2022-08-22T18:49:33.704Z,89011.38
2022-08-22T18:52:06.721Z,89013.16
2022-08-22T18:54:59.101Z,89020.53
2022-08-22T18:57:46.913Z,89012.78
2022-08-22T19:00:40.256Z,89008.22
2022-08-22T19:03:42.449Z,89014.75
2022-08-22T19:06:21.309Z,89011.16
2022-08-22T19:09:37.062Z,89017.94
2022-08-22T19:12:40.871Z,89022.06
2022-08-22T19:15:31.479Z,89016.34
2022-08-22T19:17:59.186Z,89029.91
2022-08-22T19:20:36.603Z,89022.75
2022-08-22T19:23:34.597Z,89024.88
2022-08-22T19:26:32.016Z,89024.16
2022-08-22T19:29:19.046Z,89028.69
2022-08-22T19:32:12.983Z,89033.56
2022-08-22T19:34:47.073Z,89033.69
2022-08-22T19:37:33.224Z,89027.97
2022-08-22T19:40:11.819Z,89038.91
2022-08-22T19:42:41.299Z,89041.25
2022-08-22T19:45:20.396Z,89046.59
2022-08-22T19:48:13.213Z,89057.84
2022-08-22T19:50:41.247Z,89059.47
2022-08-22T19:53:23.313Z,89066.09
2022-08-22T19:56:20.364Z,89062.78
2022-08-22T19:59:08.557Z,89059.47
2022-08-22T20:01:51.336Z,89055.97
2022-08-22T20:04:49.637Z,89047.63
2022-08-22T20:07:43.375Z,89055.97
2022-08-22T20:10:19.439Z,89052.31
2022-08-22T20:13:07.910Z,89056.97
2022-08-22T20:16:03.835Z,89055.69
2022-08-22T20:19:07.244Z,89059.72
2022-08-22T20:21:50.490Z,89052.00
2022-08-22T20:24:39.998Z,89051.50
2022-08-22T20:27:17.537Z,89056.66
2022-08-22T20:29:50.186Z,89066.06
2022-08-22T20:32:19.708Z,89067.94
2022-08-22T20:34:50.476Z,89077.19
2022-08-22T20:37:40.176Z,89085.28
2022-08-22T20:40:56.774Z,89089.03
2022-08-22T20:43:35.685Z,89090.94
2022-08-22T20:46:22.694Z,89084.59
2022-08-22T20:48:54.418Z,89087.78
2022-08-22T20:51:24.416Z,89089.94
2022-08-22T20:53:58.378Z,89092.56
2022-08-22T20:56:37.411Z,89094.16
2022-08-22T20:59:27.266Z,89077.50
2022-08-22T21:02:12.469Z,89083.28
2022-08-22T21:05:03.975Z,89086.59
2022-08-22T21:07:32.469Z,89088.22
2022-08-22T21:10:06.389Z,89087.38
2022-08-22T21:12:33.210Z,89080.78
2022-08-22T21:15:00.023Z,89089.44
2022-08-22T21:17:34.423Z,89091.47
2022-08-22T21:20:39.213Z,89087.53
2022-08-22T21:23:13.069Z,89078.09
2022-08-22T21:25:51.805Z,89084.41
2022-08-22T21:28:33.008Z,89079.41
2022-08-22T21:31:07.514Z,89081.28
2022-08-22T21:33:34.680Z,89080.13
2022-08-22T21:36:01.633Z,89081.41
2022-08-22T21:38:28.596Z,89080.13
2022-08-22T21:41:02.247Z,89085.34
2022-08-22T21:43:37.959Z,89079.47
2022-08-22T21:46:06.378Z,89073.16
2022-08-22T21:48:36.132Z,89065.22
2022-08-22T21:51:23.579Z,89073.88
2022-08-22T21:53:53.359Z,89066.97
2022-08-22T21:56:37.611Z,89065.50
2022-08-22T21:59:51.773Z,89068.84
2022-08-22T22:02:39.702Z,89063.00
2022-08-22T22:05:12.773Z,89058.69
2022-08-22T22:07:41.876Z,89063.88
2022-08-22T22:10:12.019Z,89062.47
2022-08-22T22:12:41.910Z,89063.47
2022-08-22T22:15:12.738Z,89061.31
2022-08-22T22:17:39.685Z,89069.81
2022-08-22T22:20:07.077Z,89073.84
2022-08-22T22:22:33.997Z,89073.44
2022-08-22T22:25:05.159Z,89068.88
2022-08-22T22:27:52.258Z,89064.72
2022-08-22T22:30:20.821Z,89069.28
2022-08-22T22:32:49.352Z,89063.84
2022-08-22T22:35:19.615Z,89059.53
2022-08-22T22:37:47.066Z,89054.69
2022-08-22T22:40:14.388Z,89064.41
2022-08-22T22:42:41.767Z,89056.69
2022-08-22T22:45:09.595Z,89060.16
2022-08-22T22:47:36.932Z,89057.84
2022-08-22T22:50:05.009Z,89054.16
2022-08-22T22:52:31.859Z,89053.44
2022-08-22T22:54:58.693Z,89058.88
2022-08-22T22:57:25.839Z,89055.69
2022-08-22T22:59:54.198Z,89055.44
2022-08-22T23:02:22.747Z,89056.88
2022-08-22T23:04:55.314Z,89060.72
2022-08-22T23:07:24.480Z,89059.03
2022-08-22T23:09:55.712Z,89064.34
2022-08-22T23:12:26.913Z,89062.63
2022-08-22T23:14:54.102Z,89065.47
2022-08-22T23:17:21.195Z,89064.06
2022-08-22T23:19:48.264Z,89064.63
2022-08-22T23:22:15.180Z,89068.53
2022-08-22T23:24:42.347Z,89070.38
2022-08-22T23:27:11.139Z,89072.53
2022-08-22T23:29:41.918Z,89068.38
2022-08-22T23:32:13.924Z,89064.50
2022-08-22T23:34:44.636Z,89066.94
2022-08-22T23:37:13.596Z,89075.84
2022-08-22T23:39:41.123Z,89078.16
2022-08-22T23:42:09.521Z,89082.44
2022-08-22T23:44:38.807Z,89073.09
2022-08-22T23:47:07.767Z,89076.69
2022-08-22T23:49:35.673Z,89075.56
2022-08-22T23:52:03.288Z,89079.84
2022-08-22T23:54:30.227Z,89070.53
2022-08-22T23:57:00.680Z,89067.22
2022-08-22T23:59:33.954Z,89063.94
